| Date | Time | Temp. (oF) | Dew Point (oF) | Rel. Hum. (%) | Press. (in.) | Wind Dir. | Wind Speed (mph) | Hourly Rainfall (in.) |
|
|---|---|---|---|---|---|---|---|---|---|
| 1 | 10/06 | 00:00 | 65 | 64 | 99 | 30.11 | S | 1 | 0.00 |
| 2 | 10/05 | 23:00 | 65 | 64 | 98 | 30.11 | N | 1 | 0.00 |
| 3 | 10/05 | 22:00 | 66 | 65 | 98 | 30.10 | NNE | 1 | 0.00 |
| 4 | 10/05 | 21:00 | 66 | 64 | 95 | 30.10 | SSE | 3 | 0.00 |
| 5 | 10/05 | 20:00 | 68 | 64 | 90 | 30.08 | NNE | 1 | 0.00 |
| 6 | 10/05 | 19:00 | 74 | 59 | 61 | 30.08 | SSW | 7 | 0.00 |
| 7 | 10/05 | 18:00 | 76 | 61 | 60 | 30.06 | SSW | 5 | 0.00 |
| 8 | 10/05 | 17:00 | 78 | 60 | 56 | 30.06 | S | 4 | 0.00 |
| 9 | 10/05 | 16:00 | 79 | 60 | 53 | 30.06 | SW | 4 | 0.00 |
| 10 | 10/05 | 15:00 | 81 | 60 | 50 | 30.08 | WSW | 3 | 0.00 |
| 11 | 10/05 | 14:00 | 84 | 60 | 45 | 30.08 | WSW | 4 | 0.00 |
| 12 | 10/05 | 13:00 | 82 | 60 | 48 | 30.10 | NW | 4 | 0.00 |
| 13 | 10/05 | 12:00 | 81 | 59 | 49 | 30.13 | SW | 4 | 0.00 |
| 14 | 10/05 | 11:00 | 74 | 59 | 61 | 30.16 | SW | 3 | 0.00 |
| 15 | 10/05 | 10:00 | 69 | 58 | 70 | 30.16 | SE | 3 | 0.00 |
| 16 | 10/05 | 09:00 | 61 | 57 | 87 | 30.17 | S | 3 | 0.00 |
| 17 | 10/05 | 08:00 | 55 | 54 | 98 | 30.17 | SE | 0 | 0.00 |
| 18 | 10/05 | 07:00 | 55 | 54 | 98 | 30.17 | SE | 0 | 0.00 |
| 19 | 10/05 | 06:00 | 55 | 54 | 97 | 30.17 | SE | 0 | 0.00 |
| 20 | 10/05 | 05:00 | 55 | 53 | 96 | 30.16 | SE | 0 | 0.00 |
| 21 | 10/05 | 04:00 | 56 | 54 | 95 | 30.16 | SE | 0 | 0.00 |
| 22 | 10/05 | 03:00 | 57 | 54 | 93 | 30.18 | SE | 1 | 0.00 |
| 23 | 10/05 | 02:00 | 58 | 55 | 91 | 30.19 | SE | 1 | 0.00 |
| 24 | 10/05 | 01:00 | 59 | 55 | 89 | 30.21 | SE | 1 | 0.00 |